Waynesfield, Ohio
Current Conditions -  °F | °C
As of 2:53 AM on Friday 19 Dec 2014 (Local Time) from KAOH Reporting Station
Haze Haze  
Wind Chill: -4°   Ceiling: 2500
Heat Index: -1°   Visibility: 5mi
Dew Point: -5°   Wind: 6mph
Humidity: 75%   Direction: 250°WSW
Pressure: 30.21"   Gusts: NA
Location:  40.6°N, 83.98°W
Report Text: KAOH 190753Z AUTO 25005KT 5SM HZ OVC025 M01/M05 A3021 RMK AO2 SLP240 T10111050
Loading
Personal Weather Stations






























Interactive Weather Map New forecast layout! Learn more

10-Day Weather Forecast

Advertisements
Track Severe Weather on mobile